Time;durP1;ratioP1;P1;durP2;ratioP2;P2;SDS_P1;SDS_P2;PMS_P1;PMS_P2;Temp;Humidity;BMP_temperature;BMP_pressure;BME280_temperature;BME280_humidity;BME280_pressure;Samples;Min_cycle;Max_cycle;Signal;HPM_P1;HPM_P2
2021/01/19 00:01:59;;;;;;;175.07;64.20;;;-16.00;99.90;;;;;;4970792;28;20202;-83
2021/01/19 00:04:25;;;;;;;233.23;73.70;;;-15.90;99.90;;;;;;4974087;28;20770;-83
2021/01/19 00:06:50;;;;;;;183.73;70.17;;;-15.90;99.90;;;;;;4974522;28;20656;-84
2021/01/19 00:09:16;;;;;;;158.87;67.47;;;-15.80;99.90;;;;;;4957143;28;20220;-84
2021/01/19 00:11:42;;;;;;;229.13;70.57;;;-15.80;99.90;;;;;;4974813;28;20197;-84
2021/01/19 00:14:07;;;;;;;187.40;69.70;;;-15.80;99.90;;;;;;4976500;28;20671;-85
2021/01/19 00:16:33;;;;;;;209.57;69.90;;;-15.70;99.90;;;;;;4975106;28;20218;-85
2021/01/19 00:18:58;;;;;;;260.33;86.97;;;-15.70;99.90;;;;;;4974812;28;20187;-85
2021/01/19 00:21:24;;;;;;;229.87;72.00;;;-15.60;99.90;;;;;;4974739;28;20186;-83
2021/01/19 00:23:50;;;;;;;190.97;70.53;;;-15.60;99.90;;;;;;4961882;28;20597;-84
2021/01/19 00:26:15;;;;;;;168.23;67.00;;;-15.50;99.90;;;;;;4960775;28;20218;-83
2021/01/19 00:28:41;;;;;;;201.97;64.47;;;-15.60;99.90;;;;;;4979029;28;20222;-84
2021/01/19 00:31:08;;;;;;;210.13;72.87;;;-15.60;99.90;;;;;;4957006;28;20671;-84
2021/01/19 00:33:34;;;;;;;146.07;59.57;;;-15.60;99.90;;;;;;4974797;28;20180;-84
2021/01/19 00:36:00;;;;;;;191.60;66.93;;;-15.60;99.90;;;;;;4973342;28;20193;-84
2021/01/19 00:38:25;;;;;;;160.40;60.23;;;-15.60;99.90;;;;;;4973776;28;20178;-84
2021/01/19 00:40:51;;;;;;;151.93;56.93;;;-14.70;99.90;;;;;;4973285;28;20179;-89
2021/01/19 00:43:17;;;;;;;146.03;52.80;;;-15.60;99.90;;;;;;4974525;28;20190;-84
2021/01/19 00:45:42;;;;;;;188.33;60.50;;;-15.60;99.90;;;;;;4979010;28;20234;-85
2021/01/19 00:48:09;;;;;;;166.80;59.37;;;-15.60;99.90;;;;;;4977406;28;20196;-84
2021/01/19 00:50:34;;;;;;;123.83;52.73;;;-15.60;99.90;;;;;;4974809;28;20174;-84
2021/01/19 00:53:01;;;;;;;165.30;58.27;;;-15.60;99.90;;;;;;4959668;28;20711;-85
2021/01/19 00:55:27;;;;;;;106.50;47.20;;;-15.60;99.90;;;;;;4987448;28;20237;-85
2021/01/19 00:57:52;;;;;;;126.50;51.33;;;-13.40;99.90;;;;;;4970370;28;20208;-84
2021/01/19 01:00:19;;;;;;;110.13;43.67;;;-15.50;99.90;;;;;;4938128;29;20203;-85
2021/01/19 01:02:44;;;;;;;149.67;51.87;;;-15.50;99.90;;;;;;4962723;28;20209;-85
2021/01/19 01:05:11;;;;;;;122.77;42.17;;;-15.50;99.90;;;;;;4970141;28;20186;-85
2021/01/19 01:07:38;;;;;;;114.47;46.60;;;-15.60;99.90;;;;;;4959543;28;20179;-84
2021/01/19 01:10:08;;;;;;;122.93;44.63;;;-15.60;99.90;;;;;;4974062;28;20179;-85
2021/01/19 01:12:34;;;;;;;130.50;45.97;;;-15.50;99.90;;;;;;4974361;28;20186;-85
2021/01/19 01:15:01;;;;;;;139.07;52.23;;;-15.50;99.90;;;;;;4979814;28;20671;-85
2021/01/19 01:17:26;;;;;;;163.53;55.07;;;-15.50;99.90;;;;;;4974382;28;20211;-85
2021/01/19 01:19:52;;;;;;;166.70;54.53;;;-15.50;99.90;;;;;;4977226;28;20206;-85
2021/01/19 01:22:18;;;;;;;126.07;51.77;;;-15.40;99.90;;;;;;4965963;28;20218;-85
2021/01/19 01:24:43;;;;;;;120.77;54.07;;;-15.40;99.90;;;;;;4978650;28;20183;-85
2021/01/19 01:27:09;;;;;;;131.70;51.67;;;-15.40;99.90;;;;;;4978264;28;20626;-86
2021/01/19 01:29:35;;;;;;;148.40;58.13;;;-15.40;99.90;;;;;;4974369;28;20189;-85
2021/01/19 01:32:00;;;;;;;161.37;51.53;;;-15.30;99.90;;;;;;4977060;28;20272;-86
2021/01/19 01:34:26;;;;;;;111.03;43.00;;;-15.30;99.90;;;;;;4960708;28;20189;-85
2021/01/19 01:36:52;;;;;;;127.57;48.87;;;-15.30;99.90;;;;;;4977118;28;20217;-85
2021/01/19 01:39:17;;;;;;;134.17;43.77;;;-15.30;99.90;;;;;;4977708;28;20214;-86
2021/01/19 01:41:43;;;;;;;139.17;52.07;;;-15.30;99.90;;;;;;4977167;28;20194;-86
2021/01/19 01:44:09;;;;;;;123.37;44.07;;;-15.30;99.90;;;;;;4976402;28;20670;-86
2021/01/19 01:46:36;;;;;;;150.30;51.57;;;-15.40;99.90;;;;;;4984423;28;20295;-85
2021/01/19 01:49:03;;;;;;;125.53;43.97;;;-15.40;99.90;;;;;;4977809;28;20273;-85
2021/01/19 01:51:29;;;;;;;96.63;39.67;;;-15.40;99.90;;;;;;4960456;28;20670;-85
2021/01/19 01:53:56;;;;;;;102.63;36.77;;;-15.40;99.90;;;;;;4964120;28;20643;-85
2021/01/19 01:56:22;;;;;;;143.50;44.10;;;-15.30;99.90;;;;;;4976147;28;20207;-86
2021/01/19 01:58:50;;;;;;;115.93;41.97;;;-15.30;99.90;;;;;;4976328;28;20218;-85
2021/01/19 02:01:15;;;;;;;93.07;38.07;;;-15.30;99.90;;;;;;4960501;28;20186;-85
2021/01/19 02:03:41;;;;;;;77.53;34.97;;;-15.20;99.90;;;;;;4960159;28;20197;-85
2021/01/19 02:06:07;;;;;;;110.30;40.47;;;-15.30;99.90;;;;;;4992556;28;20546;-84
2021/01/19 02:08:56;;;;;;;95.07;37.57;;;-15.20;99.90;;;;;;4977467;28;20244;-85
2021/01/19 02:11:52;;;;;;;89.50;33.10;;;-15.30;99.90;;;;;;4966289;28;20257;-84
2021/01/19 02:14:37;;;;;;;86.23;31.17;;;-15.40;99.90;;;;;;4977008;28;20190;-84
2021/01/19 02:17:20;;;;;;;91.73;34.40;;;-15.40;99.90;;;;;;4976960;28;20206;-85
2021/01/19 02:20:04;;;;;;;83.50;34.37;;;-15.30;99.90;;;;;;4976242;28;20606;-85
2021/01/19 02:22:58;;;;;;;102.13;36.30;;;-15.40;99.90;;;;;;4991926;28;20190;-85
2021/01/19 02:25:51;;;;;;;101.20;38.97;;;-15.30;99.90;;;;;;4975450;28;20933;-85
2021/01/19 02:28:38;;;;;;;98.17;40.43;;;-15.30;99.90;;;;;;4965016;28;20190;-86
2021/01/19 02:31:39;;;;;;;95.13;37.13;;;-15.30;99.90;;;;;;4974346;28;20187;-85
2021/01/19 02:34:27;;;;;;;93.63;35.83;;;-15.30;99.90;;;;;;4976739;28;20191;-85
2021/01/19 02:37:08;;;;;;;90.60;34.13;;;-15.40;99.90;;;;;;4965826;28;20305;-84
2021/01/19 02:40:04;;;;;;;85.63;38.30;;;-15.40;99.90;;;;;;4984855;28;20189;-85
2021/01/19 02:42:57;;;;;;;93.13;40.13;;;-15.30;99.90;;;;;;4975377;28;20557;-85
2021/01/19 02:45:24;;;;;;;118.33;44.13;;;-15.20;99.90;;;;;;4975324;28;20225;-85
2021/01/19 02:47:50;;;;;;;128.53;50.67;;;-15.30;99.90;;;;;;4976389;28;20191;-85
2021/01/19 02:50:15;;;;;;;114.17;51.07;;;-15.20;99.90;;;;;;4976155;28;20179;-87
2021/01/19 02:52:42;;;;;;;98.83;42.90;;;-15.20;99.90;;;;;;4958910;28;20194;-85
2021/01/19 02:55:09;;;;;;;122.53;45.40;;;-15.40;99.90;;;;;;4975892;28;20236;-83
2021/01/19 02:57:59;;;;;;;137.13;49.40;;;-15.40;99.90;;;;;;4958978;28;20222;-85
2021/01/19 03:00:33;;;;;;;139.57;48.50;;;-15.40;99.90;;;;;;4975825;28;20249;-86
2021/01/19 03:03:01;;;;;;;107.37;43.73;;;-15.40;99.90;;;;;;4976273;28;20190;-84
2021/01/19 03:05:29;;;;;;;132.77;50.73;;;-15.40;99.90;;;;;;4959323;28;20225;-84
2021/01/19 03:07:56;;;;;;;102.13;40.93;;;-15.50;99.90;;;;;;4975161;28;20198;-84
2021/01/19 03:10:24;;;;;;;78.20;36.33;;;-15.50;99.90;;;;;;4976281;28;20240;-84
2021/01/19 03:12:50;;;;;;;115.83;39.60;;;-15.50;99.90;;;;;;4976457;28;20767;-86
2021/01/19 03:15:17;;;;;;;116.73;45.80;;;-15.50;99.90;;;;;;4964080;28;20266;-85
2021/01/19 03:17:43;;;;;;;78.53;38.53;;;-15.50;99.90;;;;;;4974729;28;20216;-84
2021/01/19 03:20:13;;;;;;;131.97;40.57;;;-15.50;99.90;;;;;;4975883;28;20639;-85
2021/01/19 03:22:39;;;;;;;103.60;46.47;;;-15.50;99.90;;;;;;4974578;28;20187;-85
2021/01/19 03:25:06;;;;;;;126.27;44.97;;;-15.40;99.90;;;;;;4991057;28;20273;-85
2021/01/19 03:27:31;;;;;;;81.53;36.40;;;-15.50;99.90;;;;;;4975854;28;20260;-85
2021/01/19 03:29:57;;;;;;;103.67;45.17;;;-15.60;99.90;;;;;;4955277;29;20628;-85
2021/01/19 03:32:22;;;;;;;116.43;42.80;;;-15.60;99.90;;;;;;4981241;28;20191;-85
2021/01/19 03:34:48;;;;;;;92.43;37.17;;;-15.60;99.90;;;;;;4990300;28;20199;-85
2021/01/19 03:37:14;;;;;;;108.27;41.37;;;-15.60;99.90;;;;;;4975277;28;20245;-85
2021/01/19 03:39:39;;;;;;;133.90;42.63;;;-15.70;99.90;;;;;;4982905;28;20194;-85
2021/01/19 03:42:05;;;;;;;92.27;35.90;;;-15.60;99.90;;;;;;4975970;28;20541;-85
2021/01/19 03:44:31;;;;;;;108.20;37.13;;;-15.50;99.90;;;;;;4974385;28;20201;-85
2021/01/19 03:46:56;;;;;;;85.27;34.10;;;-15.60;99.90;;;;;;4983376;28;20707;-85
2021/01/19 03:49:22;;;;;;;75.87;34.43;;;-15.60;99.90;;;;;;4984252;28;20279;-85
2021/01/19 03:51:48;;;;;;;88.27;35.97;;;-15.70;99.90;;;;;;4974486;28;20321;-85
2021/01/19 03:54:13;;;;;;;133.53;51.63;;;-15.70;99.90;;;;;;4975540;28;20190;-85
2021/01/19 03:56:39;;;;;;;151.83;53.40;;;-15.70;99.90;;;;;;4958210;28;20679;-85
2021/01/19 03:59:05;;;;;;;137.33;49.90;;;-15.80;99.90;;;;;;4974669;28;20175;-86
2021/01/19 04:01:30;;;;;;;79.03;37.83;;;-15.80;99.90;;;;;;4975019;28;20289;-85
2021/01/19 04:03:56;;;;;;;123.77;48.47;;;-15.70;99.90;;;;;;4973736;28;20182;-85
2021/01/19 04:06:22;;;;;;;90.83;36.90;;;-15.70;99.90;;;;;;4974799;28;20596;-85
2021/01/19 04:08:48;;;;;;;81.00;33.37;;;-15.70;99.90;;;;;;4973366;28;20592;-85
2021/01/19 04:11:13;;;;;;;88.83;34.57;;;-15.70;99.90;;;;;;4974328;28;20186;-86
2021/01/19 04:13:39;;;;;;;85.47;39.20;;;-15.70;99.90;;;;;;4973189;28;20210;-85
2021/01/19 04:16:05;;;;;;;103.33;40.97;;;-15.60;99.90;;;;;;4989752;28;20559;-87
2021/01/19 04:18:31;;;;;;;86.37;37.63;;;-15.70;99.90;;;;;;4973419;28;20569;-85
2021/01/19 04:20:57;;;;;;;109.50;47.03;;;-15.60;99.90;;;;;;4974187;28;20183;-84
2021/01/19 04:23:22;;;;;;;160.13;62.47;;;-15.50;99.90;;;;;;4974170;28;20187;-85
2021/01/19 04:25:49;;;;;;;230.53;82.47;;;-15.40;99.90;;;;;;4974803;28;20229;-85
2021/01/19 04:28:15;;;;;;;192.57;60.87;;;-15.30;99.90;;;;;;4974528;28;20214;-85
2021/01/19 04:30:42;;;;;;;119.23;52.13;;;-15.30;99.90;;;;;;4972508;28;20253;-86
2021/01/19 04:33:09;;;;;;;113.80;42.97;;;-15.40;99.90;;;;;;4973587;28;20714;-86
2021/01/19 04:35:35;;;;;;;97.17;43.00;;;-15.30;99.90;;;;;;4973455;28;20240;-85
2021/01/19 04:38:00;;;;;;;264.70;70.43;;;-15.30;99.90;;;;;;4973727;28;20222;-85
2021/01/19 04:40:26;;;;;;;168.00;54.90;;;-15.20;99.90;;;;;;4974733;28;20197;-84
2021/01/19 04:42:52;;;;;;;227.47;69.47;;;-15.20;99.90;;;;;;4989745;28;20210;-84
2021/01/19 04:45:40;;;;;;;121.33;42.47;;;-15.10;99.90;;;;;;4974471;28;20639;-84
2021/01/19 04:48:07;;;;;;;108.27;38.20;;;-15.00;99.90;;;;;;4975005;28;20174;-86
2021/01/19 04:50:35;;;;;;;131.63;47.13;;;-15.10;99.90;;;;;;4974652;28;20628;-84
2021/01/19 04:53:02;;;;;;;108.20;39.90;;;-15.00;99.90;;;;;;4959738;28;20179;-84
2021/01/19 04:55:28;;;;;;;130.60;48.97;;;-14.90;99.90;;;;;;4955306;28;20215;-84
2021/01/19 04:57:58;;;;;;;128.07;46.90;;;-14.80;99.90;;;;;;4965038;28;20210;-86
2021/01/19 05:00:34;;;;;;;113.87;47.87;;;-14.70;99.90;;;;;;4974518;28;20183;-85
2021/01/19 05:03:03;;;;;;;138.70;49.57;;;-14.70;99.90;;;;;;4974243;28;20654;-84
2021/01/19 05:05:37;;;;;;;316.00;86.17;;;-14.70;99.90;;;;;;4973607;28;20185;-84
2021/01/19 05:08:18;;;;;;;159.17;52.70;;;-14.60;99.90;;;;;;4988724;28;20547;-84
2021/01/19 05:11:19;;;;;;;135.53;54.70;;;-14.50;99.90;;;;;;4985632;28;20643;-85
2021/01/19 05:13:59;;;;;;;196.97;68.23;;;-14.50;99.90;;;;;;4983942;28;20186;-86
2021/01/19 05:16:34;;;;;;;168.07;55.53;;;-14.40;99.90;;;;;;4975592;28;20753;-85
2021/01/19 05:19:02;;;;;;;100.87;40.07;;;-14.40;99.90;;;;;;4994084;28;20173;-91
2021/01/19 05:21:28;;;;;;;226.40;72.30;;;-14.50;99.90;;;;;;4997898;28;20166;-94
2021/01/19 05:23:55;;;;;;;101.37;40.07;;;-14.50;99.90;;;;;;4997883;28;20185;-89
2021/01/19 05:26:21;;;;;;;101.00;38.20;;;-14.50;99.90;;;;;;4983062;28;20261;-84
2021/01/19 05:28:53;;;;;;;85.83;34.47;;;-14.50;99.90;;;;;;4972361;28;20233;-86
2021/01/19 05:31:20;;;;;;;92.57;34.73;;;-14.40;99.90;;;;;;4973326;28;20190;-85
2021/01/19 05:33:54;;;;;;;229.70;70.50;;;-14.40;99.90;;;;;;4973531;28;20218;-86
2021/01/19 05:36:38;;;;;;;300.43;85.97;;;-14.30;99.90;;;;;;4972111;28;20260;-85
2021/01/19 05:39:07;;;;;;;195.83;60.83;;;-14.20;99.90;;;;;;4988656;28;20191;-85
2021/01/19 05:41:40;;;;;;;322.50;88.63;;;-14.10;99.90;;;;;;4972730;28;20730;-86
2021/01/19 05:44:11;;;;;;;105.80;38.60;;;-14.00;99.90;;;;;;4989200;28;20190;-86
2021/01/19 05:47:04;;;;;;;660.03;235.50;;;-14.00;99.90;;;;;;4973979;28;20297;-86
2021/01/19 05:49:36;;;;;;;169.07;58.07;;;-13.90;99.90;;;;;;4969125;28;20174;-86
2021/01/19 05:52:05;;;;;;;361.60;107.07;;;-13.90;99.90;;;;;;4973487;28;20190;-86
2021/01/19 05:54:38;;;;;;;149.57;51.80;;;-13.80;99.90;;;;;;4973085;28;20241;-86
2021/01/19 05:57:23;;;;;;;271.20;85.57;;;-13.60;99.90;;;;;;4973064;28;20218;-86
2021/01/19 05:59:54;;;;;;;199.00;69.90;;;-13.50;99.90;;;;;;4975024;28;20589;-86
2021/01/19 06:02:21;;;;;;;250.13;77.03;;;-13.50;99.90;;;;;;4973384;28;20206;-89
2021/01/19 06:04:52;;;;;;;175.23;57.27;;;-13.50;99.90;;;;;;4972635;28;20190;-85
2021/01/19 06:07:25;;;;;;;185.57;60.70;;;-13.40;99.90;;;;;;4976144;28;20185;-85
2021/01/19 06:09:52;;;;;;;218.73;68.63;;;-13.40;99.90;;;;;;4960752;28;20297;-85
2021/01/19 06:12:19;;;;;;;140.73;48.23;;;-13.40;99.90;;;;;;4976365;28;20170;-86
2021/01/19 06:14:52;;;;;;;136.57;48.00;;;-13.30;99.90;;;;;;4978107;28;20179;-87
2021/01/19 06:17:22;;;;;;;137.83;51.47;;;-13.20;99.90;;;;;;4992519;28;20222;-87
2021/01/19 06:19:50;;;;;;;199.00;61.33;;;-13.20;99.90;;;;;;4975777;28;20215;-89
2021/01/19 06:22:17;;;;;;;233.40;69.77;;;-11.40;99.90;;;;;;4978665;28;20270;-87
2021/01/19 06:42:27;;;;;;;260.80;90.83;;;-12.60;99.90;;;;;;5083365;28;21011;-91
2021/01/19 06:45:02;;;;;;;423.63;152.63;;;-12.60;99.90;;;;;;5061327;28;20211;-89
2021/01/19 06:47:28;;;;;;;299.80;109.90;;;;;;;;;;5069830;28;20176;-90
2021/01/19 06:49:55;;;;;;;275.23;102.33;;;-12.60;99.90;;;;;;5066872;28;20217;-92
2021/01/19 06:52:21;;;;;;;228.67;82.30;;;-12.50;99.90;;;;;;5059162;28;20275;-89
2021/01/19 06:54:55;;;;;;;246.33;91.07;;;-12.80;99.90;;;;;;5074135;28;20188;-91
2021/01/19 06:57:52;;;;;;;252.27;89.10;;;-12.40;99.90;;;;;;5065619;28;20196;-90
2021/01/19 07:00:23;;;;;;;215.20;66.90;;;-12.30;99.90;;;;;;5070469;28;20200;-91
2021/01/19 07:02:50;;;;;;;184.40;70.23;;;-12.30;99.90;;;;;;5075977;28;20181;-95
2021/01/19 07:05:21;;;;;;;226.90;79.50;;;-12.20;99.90;;;;;;5085422;28;20195;-92
2021/01/19 07:08:20;;;;;;;247.40;82.30;;;-12.20;99.90;;;;;;5079304;28;21065;-90
2021/01/19 07:11:06;;;;;;;285.07;97.77;;;-11.90;99.90;;;;;;5060298;28;20193;-90
2021/01/19 07:13:41;;;;;;;192.43;65.87;;;-12.10;99.90;;;;;;5085665;28;20179;-90
2021/01/19 07:16:08;;;;;;;202.73;68.87;;;-12.10;99.90;;;;;;5080830;28;20180;-89
2021/01/19 07:19:01;;;;;;;207.43;68.07;;;-11.80;99.90;;;;;;5058565;28;20329;-88
2021/01/19 07:22:09;;;;;;;215.30;78.30;;;-11.70;99.90;;;;;;5086584;28;20206;-90
2021/01/19 07:24:46;;;;;;;234.10;86.47;;;-11.40;99.90;;;;;;5082641;28;20184;-90
2021/01/19 07:27:18;;;;;;;251.80;91.63;;;-11.50;99.90;;;;;;5063032;28;20584;-90
2021/01/19 07:34:59;;;;;;;226.93;74.17;;;-11.30;99.90;;;;;;5567370;22;20254;-90
2021/01/19 07:37:33;;;;;;;201.33;72.53;;;-10.00;99.90;;;;;;5030813;28;20190;-90
2021/01/19 07:39:59;;;;;;;156.27;59.53;;;;;;;;;;5008441;28;20745;-89
2021/01/19 07:42:30;;;;;;;176.30;56.90;;;-11.00;99.90;;;;;;5031564;28;20567;-89
2021/01/19 07:45:05;;;;;;;200.20;65.63;;;-11.00;99.90;;;;;;5033606;28;20198;-88
2021/01/19 07:47:44;;;;;;;220.20;75.77;;;-10.90;99.90;;;;;;5010844;28;20269;-91
2021/01/19 07:50:10;;;;;;;205.40;74.13;;;;;;;;;;5014654;28;20191;-89
2021/01/19 07:52:41;;;;;;;213.50;70.60;;;-10.60;99.90;;;;;;5015338;28;20521;-89
2021/01/19 07:55:25;;;;;;;270.77;91.27;;;-10.50;99.90;;;;;;5027076;28;20211;-89
2021/01/19 07:57:53;;;;;;;234.87;82.70;;;-10.30;99.90;;;;;;5024775;28;20267;-89
2021/01/19 08:00:24;;;;;;;272.37;90.43;;;-10.20;99.90;;;;;;5022485;28;20209;-90
2021/01/19 08:02:50;;;;;;;251.10;84.03;;;;;;;;;;5022839;28;20176;-89
2021/01/19 08:05:27;;;;;;;233.37;82.73;;;-10.00;99.90;;;;;;5023770;28;20188;-92
2021/01/19 08:07:53;;;;;;;244.00;81.00;;;;;;;;;;5002770;28;20212;-88
2021/01/19 08:10:27;;;;;;;242.97;78.10;;;-9.30;99.90;;;;;;5002123;28;20189;-89
2021/01/19 08:12:59;;;;;;;222.10;74.53;;;-9.60;99.90;;;;;;4993048;28;20192;-89
2021/01/19 08:15:32;;;;;;;225.60;74.80;;;-8.00;99.90;;;;;;5027391;28;20172;-86
2021/01/19 08:18:00;;;;;;;194.50;69.13;;;-9.40;99.90;;;;;;5032500;28;20244;-86
2021/01/19 08:20:31;;;;;;;139.20;51.93;;;-9.30;99.90;;;;;;5029806;28;20205;-85
2021/01/19 08:23:12;;;;;;;140.80;49.87;;;-9.20;99.90;;;;;;5033748;28;20191;-87
2021/01/19 08:25:38;;;;;;;125.37;40.07;;;;;;;;;;5023532;28;20199;-88
2021/01/19 08:28:04;;;;;;;136.37;48.73;;;;;;;;;;5010956;28;20181;-91
2021/01/19 08:30:31;;;;;;;129.43;48.60;;;;;;;;;;5026703;28;20177;-88
2021/01/19 08:32:58;;;;;;;125.27;46.43;;;-8.40;99.90;;;;;;5018276;28;20252;-90
2021/01/19 08:35:26;;;;;;;149.30;52.70;;;-8.60;99.90;;;;;;5036469;28;20236;-86
2021/01/19 08:37:54;;;;;;;125.97;48.47;;;-8.70;99.90;;;;;;5036519;28;20196;-91
2021/01/19 08:40:22;;;;;;;139.27;51.50;;;-8.40;99.90;;;;;;5001733;28;20214;-89
2021/01/19 08:42:48;;;;;;;145.97;52.10;;;;;;;;;;5009463;28;20310;-92
2021/01/19 08:45:21;;;;;;;154.93;51.47;;;-8.30;99.90;;;;;;5006304;28;20259;-89
2021/01/19 08:47:47;;;;;;;151.03;51.43;;;;;;;;;;5026743;28;20199;-95
2021/01/19 08:50:15;;;;;;;118.67;44.23;;;-8.20;99.90;;;;;;5005807;28;20194;-90
2021/01/19 08:52:41;;;;;;;139.03;51.30;;;-8.30;99.90;;;;;;5005428;28;20189;-93
2021/01/19 08:55:25;;;;;;;151.10;53.57;;;-8.20;99.90;;;;;;4975746;28;20693;-91
2021/01/19 08:58:05;;;;;;;150.17;53.20;;;-8.20;99.90;;;;;;5004706;28;20240;-91
2021/01/19 09:00:39;;;;;;;151.27;53.57;;;-8.00;99.90;;;;;;4987572;28;20216;-90
2021/01/19 09:03:16;;;;;;;177.53;59.87;;;-8.00;99.90;;;;;;5021204;28;20253;-89
2021/01/19 09:05:42;;;;;;;124.17;47.47;;;-8.00;99.90;;;;;;5017046;28;20184;-90
2021/01/19 09:08:16;;;;;;;136.63;51.20;;;-8.00;99.90;;;;;;4987492;28;20186;-89
2021/01/19 09:10:42;;;;;;;134.17;50.20;;;-8.00;99.90;;;;;;5024989;28;20192;-90
2021/01/19 09:13:09;;;;;;;139.57;47.00;;;;;;;;;;5024519;28;20747;-90
2021/01/19 09:15:40;;;;;;;152.40;52.37;;;-7.80;99.90;;;;;;5005868;28;20244;-91
2021/01/19 09:18:13;;;;;;;124.40;46.47;;;-7.60;99.90;;;;;;5021652;28;20193;-89
2021/01/19 09:20:42;;;;;;;136.20;47.33;;;-7.70;99.90;;;;;;5008736;28;20213;-93
2021/01/19 09:23:15;;;;;;;140.17;50.97;;;-7.60;99.90;;;;;;5024271;28;20208;-90
2021/01/19 09:25:45;;;;;;;130.83;48.70;;;-5.80;99.90;;;;;;4989725;28;20242;-93
2021/01/19 09:28:12;;;;;;;147.70;49.10;;;-7.50;99.90;;;;;;5020790;28;20977;-91
2021/01/19 09:30:39;;;;;;;126.87;46.60;;;-7.40;99.90;;;;;;5004330;28;20320;-92
2021/01/19 09:33:10;;;;;;;143.70;51.20;;;-7.40;99.90;;;;;;5002473;28;20181;-91
2021/01/19 09:35:37;;;;;;;135.20;49.57;;;-7.30;99.90;;;;;;5019682;28;20273;-90
2021/01/19 09:38:03;;;;;;;132.60;50.27;;;-6.60;99.90;;;;;;5002100;28;20196;-91
2021/01/19 09:40:33;;;;;;;142.03;45.83;;;-7.20;99.90;;;;;;4986450;28;20222;-91
2021/01/19 09:43:12;;;;;;;133.93;43.20;;;-7.20;99.90;;;;;;5001662;28;20646;-92
2021/01/19 09:45:39;;;;;;;154.63;51.33;;;;;;;;;;5004923;28;20220;-91
2021/01/19 09:48:06;;;;;;;123.63;48.63;;;-7.10;99.90;;;;;;5015665;28;20188;-87
2021/01/19 09:50:32;;;;;;;121.63;45.23;;;-5.00;99.90;;;;;;5015392;28;20665;-92
2021/01/19 09:52:57;;;;;;;114.67;43.73;;;-7.10;99.90;;;;;;5018451;28;20280;-86
2021/01/19 09:55:30;;;;;;;114.07;42.40;;;-7.10;99.90;;;;;;4996666;28;20187;-88
2021/01/19 09:58:00;;;;;;;147.90;52.83;;;-4.00;99.90;;;;;;4995807;28;20189;-88
2021/01/19 10:00:31;;;;;;;128.63;46.70;;;-7.10;99.90;;;;;;4994588;28;20689;-89
2021/01/19 10:02:56;;;;;;;130.60;51.80;;;-7.10;99.90;;;;;;4996423;28;20182;-87
2021/01/19 10:05:25;;;;;;;164.10;54.53;;;-7.10;99.90;;;;;;4996749;28;20194;-87
2021/01/19 10:07:52;;;;;;;186.20;66.00;;;-7.10;99.90;;;;;;4981082;28;20185;-88
2021/01/19 10:10:19;;;;;;;221.13;71.97;;;;;;;;;;5014704;28;20189;-88
2021/01/19 10:12:45;;;;;;;217.53;77.93;;;;;;;;;;4966256;28;20203;-88
2021/01/19 10:15:15;;;;;;;255.60;81.57;;;-6.90;99.90;;;;;;5013504;28;20662;-88
2021/01/19 10:17:40;;;;;;;222.63;78.47;;;-6.80;99.90;;;;;;4996567;28;20191;-88
2021/01/19 10:20:09;;;;;;;178.27;65.10;;;-5.40;99.90;;;;;;4996001;28;20194;-90
2021/01/19 10:22:43;;;;;;;250.60;79.57;;;-6.70;99.90;;;;;;5014458;28;20188;-88
2021/01/19 10:25:11;;;;;;;229.90;79.07;;;-6.70;99.90;;;;;;5014203;28;20208;-90
2021/01/19 10:27:42;;;;;;;184.20;69.73;;;-6.70;99.90;;;;;;5015725;28;20192;-88
2021/01/19 10:30:08;;;;;;;235.47;78.93;;;-6.60;99.90;;;;;;5015259;28;20207;-89
2021/01/19 10:32:49;;;;;;;199.13;72.63;;;-6.60;99.90;;;;;;4995627;28;20220;-88
2021/01/19 10:35:28;;;;;;;194.57;67.73;;;-6.50;99.90;;;;;;5005705;28;20238;-87
2021/01/19 10:38:05;;;;;;;272.50;102.67;;;-6.50;99.90;;;;;;5012245;28;20218;-89
2021/01/19 10:40:32;;;;;;;165.67;62.40;;;-6.60;99.90;;;;;;5008532;28;20210;-90
2021/01/19 10:43:01;;;;;;;189.47;66.40;;;-3.20;99.90;;;;;;5020551;28;20237;-90
2021/01/19 10:45:29;;;;;;;179.47;62.43;;;-6.40;99.90;;;;;;5016422;28;20276;-88
2021/01/19 10:47:56;;;;;;;166.90;57.93;;;-5.10;99.90;;;;;;5001489;28;20190;-88
2021/01/19 10:50:27;;;;;;;160.20;54.60;;;-6.40;99.90;;;;;;5001626;28;20329;-89
2021/01/19 10:52:57;;;;;;;185.13;65.47;;;-6.60;99.90;;;;;;5022105;28;20187;-90
2021/01/19 10:55:24;;;;;;;157.53;53.93;;;-6.40;99.90;;;;;;4991359;28;20713;-89
2021/01/19 10:57:58;;;;;;;165.37;54.10;;;-6.50;99.90;;;;;;4993728;28;20652;-87
2021/01/19 11:00:26;;;;;;;174.70;57.27;;;-6.40;99.90;;;;;;5009656;28;20220;-89
2021/01/19 11:02:53;;;;;;;174.80;64.33;;;;;;;;;;4995826;28;20184;-86
2021/01/19 11:05:19;;;;;;;163.27;56.57;;;;;;;;;;4998105;28;20183;-88
2021/01/19 11:07:47;;;;;;;172.63;58.80;;;-6.20;99.90;;;;;;5013092;28;20186;-90
2021/01/19 11:10:14;;;;;;;162.40;56.80;;;-6.30;99.90;;;;;;4995444;28;20216;-87
2021/01/19 11:12:44;;;;;;;160.87;53.57;;;-6.10;99.90;;;;;;4995641;28;20202;-87
2021/01/19 11:15:11;;;;;;;163.03;56.37;;;-6.00;99.90;;;;;;4996159;28;20510;-86
2021/01/19 11:17:37;;;;;;;215.87;72.10;;;-6.00;99.90;;;;;;5013027;28;20306;-86
2021/01/19 11:20:08;;;;;;;212.70;72.80;;;-3.40;99.90;;;;;;4994573;28;20598;-87
2021/01/19 11:22:34;;;;;;;189.00;65.43;;;-5.90;99.90;;;;;;4994522;28;20197;-87
2021/01/19 11:25:00;;;;;;;245.20;74.70;;;-5.90;99.90;;;;;;4990806;28;20649;-88
2021/01/19 11:27:27;;;;;;;174.17;58.33;;;;;;;;;;5008752;28;20176;-86
2021/01/19 11:29:53;;;;;;;171.50;59.53;;;-5.70;99.90;;;;;;4998766;28;20543;-86
2021/01/19 11:32:20;;;;;;;149.50;56.23;;;;;;;;;;5015684;28;20187;-87
2021/01/19 11:34:46;;;;;;;178.80;64.50;;;-5.70;99.90;;;;;;4998998;28;20232;-88
2021/01/19 11:37:15;;;;;;;155.80;61.43;;;-3.10;99.90;;;;;;5017049;28;20266;-88
2021/01/19 11:39:42;;;;;;;157.53;58.00;;;-5.50;99.90;;;;;;4999570;28;20198;-86
2021/01/19 11:42:09;;;;;;;164.97;56.90;;;-5.50;99.90;;;;;;5015903;28;20219;-88
2021/01/19 11:44:34;;;;;;;150.60;53.80;;;-5.30;99.90;;;;;;5014083;28;20198;-88
2021/01/19 11:47:00;;;;;;;141.77;52.90;;;-5.40;99.90;;;;;;4997530;28;20279;-85
2021/01/19 11:49:27;;;;;;;134.23;50.57;;;-5.30;99.90;;;;;;4982043;28;20587;-87
2021/01/19 11:51:53;;;;;;;140.50;53.67;;;;;;;;;;4997902;28;20224;-86
2021/01/19 11:54:19;;;;;;;158.50;59.70;;;-5.30;99.90;;;;;;4996239;28;20188;-85
2021/01/19 11:56:48;;;;;;;128.20;49.73;;;-3.30;99.90;;;;;;4998512;28;20714;-85
2021/01/19 11:59:27;;;;;;;;;;;;;;;;;;;;;
2021/01/19 12:01:55;;;;;;;117.70;42.60;;;-5.20;99.90;;;;;;5007266;28;20307;-86
2021/01/19 12:04:24;;;;;;;103.87;39.13;;;-5.30;99.90;;;;;;4987159;28;20203;-86
2021/01/19 12:06:52;;;;;;;101.73;38.20;;;-5.30;99.90;;;;;;5026706;28;20184;-87
2021/01/19 12:09:18;;;;;;;108.00;40.57;;;;;;;;;;5026333;28;20193;-85
2021/01/19 12:11:52;;;;;;;111.80;42.70;;;-5.40;99.90;;;;;;4994198;28;20260;-86
2021/01/19 12:14:19;;;;;;;109.50;45.10;;;;;;;;;;5026028;28;20209;-85
2021/01/19 12:16:45;;;;;;;104.77;41.97;;;;;;;;;;5017688;28;20231;-86
2021/01/19 12:19:14;;;;;;;115.73;40.13;;;;;;;;;;5015907;28;20232;-87
2021/01/19 12:21:51;;;;;;;112.80;48.07;;;-5.40;99.90;;;;;;4998293;28;20223;-86
2021/01/19 12:24:18;;;;;;;122.57;50.37;;;-2.20;99.90;;;;;;5015947;28;20220;-86
2021/01/19 12:26:45;;;;;;;133.97;49.93;;;-5.40;99.90;;;;;;4998250;28;20276;-86
2021/01/19 12:29:11;;;;;;;109.93;41.07;;;;;;;;;;4988252;28;20218;-87
2021/01/19 12:31:38;;;;;;;129.13;50.17;;;;;;;;;;4998250;28;20189;-86
2021/01/19 12:34:04;;;;;;;132.57;48.70;;;;;;;;;;5015609;28;20721;-87
2021/01/19 12:36:29;;;;;;;119.73;47.57;;;-5.40;99.90;;;;;;5001412;28;20191;-86
2021/01/19 12:38:55;;;;;;;143.30;55.30;;;-4.00;99.90;;;;;;5001959;28;20216;-86
2021/01/19 12:41:21;;;;;;;141.97;54.50;;;-5.40;99.90;;;;;;4998612;28;20727;-87
2021/01/19 12:43:46;;;;;;;140.73;52.30;;;-5.40;99.90;;;;;;4998210;28;20189;-88
2021/01/19 12:46:13;;;;;;;110.73;45.50;;;-3.00;99.90;;;;;;4997621;28;20642;-87
2021/01/19 12:48:39;;;;;;;116.03;44.37;;;-4.40;99.90;;;;;;4993246;28;20213;-87
2021/01/19 12:51:12;;;;;;;99.97;41.10;;;-5.30;99.90;;;;;;5003525;28;20634;-88
2021/01/19 12:53:38;;;;;;;103.83;42.17;;;-5.30;99.90;;;;;;5015615;28;20588;-88
2021/01/19 12:56:08;;;;;;;125.10;48.23;;;-3.20;99.90;;;;;;4981095;28;20275;-87
2021/01/19 12:58:33;;;;;;;138.90;50.77;;;-5.30;99.90;;;;;;4995504;28;20697;-88
2021/01/19 13:00:59;;;;;;;124.90;48.50;;;;;;;;;;4997260;28;20225;-89